sensor_id;sensor_type;location;lat;lon;timestamp;P1;durP1;ratioP1;P2;durP2;ratioP2
42590;SDS011;28218;53.342;-6.216;2023-05-10T00:00:25;3.97;;;1.38;;
42590;SDS011;28218;53.342;-6.216;2023-05-10T00:02:53;5.78;;;1.30;;
42590;SDS011;28218;53.342;-6.216;2023-05-10T00:05:21;7.63;;;1.63;;
42590;SDS011;28218;53.342;-6.216;2023-05-10T00:07:49;11.63;;;2.25;;
42590;SDS011;28218;53.342;-6.216;2023-05-10T00:10:18;8.50;;;1.83;;
42590;SDS011;28218;53.342;-6.216;2023-05-10T00:12:48;14.57;;;2.17;;
42590;SDS011;28218;53.342;-6.216;2023-05-10T00:15:16;9.38;;;1.50;;
42590;SDS011;28218;53.342;-6.216;2023-05-10T00:17:44;5.30;;;1.30;;
42590;SDS011;28218;53.342;-6.216;2023-05-10T00:20:12;8.85;;;1.50;;
42590;SDS011;28218;53.342;-6.216;2023-05-10T00:22:41;7.65;;;1.25;;
42590;SDS011;28218;53.342;-6.216;2023-05-10T00:25:09;9.70;;;2.13;;
42590;SDS011;28218;53.342;-6.216;2023-05-10T00:27:38;4.05;;;1.20;;
42590;SDS011;28218;53.342;-6.216;2023-05-10T00:30:08;7.65;;;1.38;;
42590;SDS011;28218;53.342;-6.216;2023-05-10T00:32:37;6.45;;;1.70;;
42590;SDS011;28218;53.342;-6.216;2023-05-10T00:35:06;8.60;;;2.10;;
42590;SDS011;28218;53.342;-6.216;2023-05-10T00:37:34;4.90;;;1.63;;
42590;SDS011;28218;53.342;-6.216;2023-05-10T00:40:03;6.00;;;1.10;;
42590;SDS011;28218;53.342;-6.216;2023-05-10T00:42:32;4.05;;;1.48;;
42590;SDS011;28218;53.342;-6.216;2023-05-10T00:45:01;7.45;;;1.60;;
42590;SDS011;28218;53.342;-6.216;2023-05-10T00:47:30;8.15;;;1.88;;
42590;SDS011;28218;53.342;-6.216;2023-05-10T00:49:59;7.80;;;1.75;;
42590;SDS011;28218;53.342;-6.216;2023-05-10T00:52:27;8.70;;;1.75;;
42590;SDS011;28218;53.342;-6.216;2023-05-10T00:54:56;8.93;;;2.00;;
42590;SDS011;28218;53.342;-6.216;2023-05-10T00:57:25;9.15;;;1.80;;
42590;SDS011;28218;53.342;-6.216;2023-05-10T00:59:54;5.90;;;1.52;;
42590;SDS011;28218;53.342;-6.216;2023-05-10T01:02:22;6.05;;;1.33;;
42590;SDS011;28218;53.342;-6.216;2023-05-10T01:04:53;7.15;;;1.85;;
42590;SDS011;28218;53.342;-6.216;2023-05-10T01:07:22;6.97;;;1.70;;
42590;SDS011;28218;53.342;-6.216;2023-05-10T01:09:50;5.35;;;2.08;;
42590;SDS011;28218;53.342;-6.216;2023-05-10T01:12:19;6.35;;;1.85;;
42590;SDS011;28218;53.342;-6.216;2023-05-10T01:14:47;5.97;;;1.55;;
42590;SDS011;28218;53.342;-6.216;2023-05-10T01:17:16;12.07;;;2.00;;
42590;SDS011;28218;53.342;-6.216;2023-05-10T01:19:45;6.43;;;1.63;;
42590;SDS011;28218;53.342;-6.216;2023-05-10T01:22:19;11.35;;;2.28;;
42590;SDS011;28218;53.342;-6.216;2023-05-10T01:28:18;7.28;;;1.83;;
42590;SDS011;28218;53.342;-6.216;2023-05-10T01:31:03;5.97;;;1.13;;
42590;SDS011;28218;53.342;-6.216;2023-05-10T01:33:46;4.38;;;1.40;;
42590;SDS011;28218;53.342;-6.216;2023-05-10T01:36:18;7.75;;;1.88;;
42590;SDS011;28218;53.342;-6.216;2023-05-10T01:38:53;5.65;;;1.15;;
42590;SDS011;28218;53.342;-6.216;2023-05-10T01:41:28;2.63;;;1.15;;
42590;SDS011;28218;53.342;-6.216;2023-05-10T01:44:08;4.97;;;1.50;;
42590;SDS011;28218;53.342;-6.216;2023-05-10T01:46:43;5.68;;;1.13;;
42590;SDS011;28218;53.342;-6.216;2023-05-10T01:49:15;7.90;;;1.73;;
42590;SDS011;28218;53.342;-6.216;2023-05-10T01:51:52;5.65;;;1.30;;
42590;SDS011;28218;53.342;-6.216;2023-05-10T01:54:22;5.77;;;1.17;;
42590;SDS011;28218;53.342;-6.216;2023-05-10T01:56:55;5.38;;;1.73;;
42590;SDS011;28218;53.342;-6.216;2023-05-10T01:59:28;3.75;;;1.27;;
42590;SDS011;28218;53.342;-6.216;2023-05-10T02:04:30;6.93;;;1.27;;
42590;SDS011;28218;53.342;-6.216;2023-05-10T02:07:00;5.32;;;1.63;;
42590;SDS011;28218;53.342;-6.216;2023-05-10T02:09:29;6.28;;;1.30;;
42590;SDS011;28218;53.342;-6.216;2023-05-10T02:14:30;7.85;;;1.50;;
42590;SDS011;28218;53.342;-6.216;2023-05-10T02:17:02;11.95;;;2.10;;
42590;SDS011;28218;53.342;-6.216;2023-05-10T02:19:34;6.28;;;1.50;;
42590;SDS011;28218;53.342;-6.216;2023-05-10T02:22:05;6.70;;;1.73;;
42590;SDS011;28218;53.342;-6.216;2023-05-10T02:24:34;4.72;;;1.13;;
42590;SDS011;28218;53.342;-6.216;2023-05-10T02:27:04;2.95;;;1.42;;
42590;SDS011;28218;53.342;-6.216;2023-05-10T02:29:33;6.57;;;1.65;;
42590;SDS011;28218;53.342;-6.216;2023-05-10T02:32:03;8.52;;;2.85;;
42590;SDS011;28218;53.342;-6.216;2023-05-10T02:34:34;11.10;;;1.55;;
42590;SDS011;28218;53.342;-6.216;2023-05-10T02:37:02;4.70;;;1.00;;
42590;SDS011;28218;53.342;-6.216;2023-05-10T02:39:32;8.65;;;1.00;;
42590;SDS011;28218;53.342;-6.216;2023-05-10T02:42:01;12.00;;;1.65;;
42590;SDS011;28218;53.342;-6.216;2023-05-10T02:44:30;9.60;;;2.17;;
42590;SDS011;28218;53.342;-6.216;2023-05-10T02:47:01;8.63;;;1.58;;
42590;SDS011;28218;53.342;-6.216;2023-05-10T02:49:30;5.68;;;1.08;;
42590;SDS011;28218;53.342;-6.216;2023-05-10T02:52:00;10.70;;;1.40;;
42590;SDS011;28218;53.342;-6.216;2023-05-10T02:54:31;10.13;;;1.90;;
42590;SDS011;28218;53.342;-6.216;2023-05-10T02:57:03;8.73;;;1.50;;
42590;SDS011;28218;53.342;-6.216;2023-05-10T02:59:33;6.15;;;1.45;;
42590;SDS011;28218;53.342;-6.216;2023-05-10T03:02:01;7.03;;;1.95;;
42590;SDS011;28218;53.342;-6.216;2023-05-10T03:04:30;6.53;;;1.75;;
42590;SDS011;28218;53.342;-6.216;2023-05-10T03:07:00;4.50;;;1.15;;
42590;SDS011;28218;53.342;-6.216;2023-05-10T03:09:29;6.60;;;1.50;;
42590;SDS011;28218;53.342;-6.216;2023-05-10T03:12:00;5.75;;;1.70;;
42590;SDS011;28218;53.342;-6.216;2023-05-10T03:14:39;8.85;;;1.40;;
42590;SDS011;28218;53.342;-6.216;2023-05-10T03:17:15;8.65;;;1.25;;
42590;SDS011;28218;53.342;-6.216;2023-05-10T03:19:53;5.97;;;1.42;;
42590;SDS011;28218;53.342;-6.216;2023-05-10T03:22:25;8.25;;;1.75;;
42590;SDS011;28218;53.342;-6.216;2023-05-10T03:24:58;10.40;;;1.58;;
42590;SDS011;28218;53.342;-6.216;2023-05-10T03:27:32;3.90;;;1.40;;
42590;SDS011;28218;53.342;-6.216;2023-05-10T03:30:01;4.13;;;1.30;;
42590;SDS011;28218;53.342;-6.216;2023-05-10T03:32:30;9.63;;;1.80;;
42590;SDS011;28218;53.342;-6.216;2023-05-10T03:35:00;8.50;;;1.63;;
42590;SDS011;28218;53.342;-6.216;2023-05-10T03:37:30;8.73;;;1.10;;
42590;SDS011;28218;53.342;-6.216;2023-05-10T03:39:58;5.85;;;1.42;;
42590;SDS011;28218;53.342;-6.216;2023-05-10T03:42:27;9.05;;;1.00;;
42590;SDS011;28218;53.342;-6.216;2023-05-10T03:44:55;4.38;;;1.13;;
42590;SDS011;28218;53.342;-6.216;2023-05-10T03:47:23;8.77;;;1.60;;
42590;SDS011;28218;53.342;-6.216;2023-05-10T03:49:51;6.07;;;1.35;;
42590;SDS011;28218;53.342;-6.216;2023-05-10T03:52:19;5.38;;;1.33;;
42590;SDS011;28218;53.342;-6.216;2023-05-10T03:54:49;4.93;;;1.45;;
42590;SDS011;28218;53.342;-6.216;2023-05-10T03:57:17;6.55;;;1.83;;
42590;SDS011;28218;53.342;-6.216;2023-05-10T03:59:46;5.30;;;1.00;;
42590;SDS011;28218;53.342;-6.216;2023-05-10T04:02:14;6.13;;;1.00;;
42590;SDS011;28218;53.342;-6.216;2023-05-10T04:04:42;9.15;;;1.90;;
42590;SDS011;28218;53.342;-6.216;2023-05-10T04:07:10;8.35;;;1.45;;
42590;SDS011;28218;53.342;-6.216;2023-05-10T04:09:38;8.43;;;1.50;;
42590;SDS011;28218;53.342;-6.216;2023-05-10T04:12:08;7.05;;;1.30;;
42590;SDS011;28218;53.342;-6.216;2023-05-10T04:14:37;6.75;;;1.92;;
42590;SDS011;28218;53.342;-6.216;2023-05-10T04:17:05;7.40;;;1.45;;
42590;SDS011;28218;53.342;-6.216;2023-05-10T04:19:34;7.82;;;1.67;;
42590;SDS011;28218;53.342;-6.216;2023-05-10T04:22:02;8.57;;;1.50;;
42590;SDS011;28218;53.342;-6.216;2023-05-10T04:24:31;6.65;;;1.77;;
42590;SDS011;28218;53.342;-6.216;2023-05-10T04:27:00;8.73;;;1.50;;
42590;SDS011;28218;53.342;-6.216;2023-05-10T04:29:29;12.27;;;1.88;;
42590;SDS011;28218;53.342;-6.216;2023-05-10T04:31:57;6.55;;;1.50;;
42590;SDS011;28218;53.342;-6.216;2023-05-10T04:34:26;7.60;;;1.45;;
42590;SDS011;28218;53.342;-6.216;2023-05-10T04:36:54;4.72;;;1.60;;
42590;SDS011;28218;53.342;-6.216;2023-05-10T04:39:22;9.25;;;1.23;;
42590;SDS011;28218;53.342;-6.216;2023-05-10T04:41:50;3.65;;;1.25;;
42590;SDS011;28218;53.342;-6.216;2023-05-10T04:44:19;6.97;;;0.95;;
42590;SDS011;28218;53.342;-6.216;2023-05-10T04:46:48;5.00;;;1.15;;
42590;SDS011;28218;53.342;-6.216;2023-05-10T04:49:17;7.68;;;1.48;;
42590;SDS011;28218;53.342;-6.216;2023-05-10T04:51:45;2.97;;;1.10;;
42590;SDS011;28218;53.342;-6.216;2023-05-10T04:54:13;3.05;;;0.80;;
42590;SDS011;28218;53.342;-6.216;2023-05-10T04:56:42;4.15;;;0.93;;
42590;SDS011;28218;53.342;-6.216;2023-05-10T04:59:10;5.47;;;1.00;;
42590;SDS011;28218;53.342;-6.216;2023-05-10T05:01:38;7.10;;;1.70;;
42590;SDS011;28218;53.342;-6.216;2023-05-10T05:04:08;4.68;;;1.20;;
42590;SDS011;28218;53.342;-6.216;2023-05-10T05:06:36;5.72;;;1.30;;
42590;SDS011;28218;53.342;-6.216;2023-05-10T05:09:05;6.47;;;1.70;;
42590;SDS011;28218;53.342;-6.216;2023-05-10T05:11:33;7.50;;;1.77;;
42590;SDS011;28218;53.342;-6.216;2023-05-10T05:14:01;3.97;;;1.13;;
42590;SDS011;28218;53.342;-6.216;2023-05-10T05:16:30;5.55;;;1.35;;
42590;SDS011;28218;53.342;-6.216;2023-05-10T05:18:59;4.70;;;1.30;;
42590;SDS011;28218;53.342;-6.216;2023-05-10T05:21:29;7.88;;;1.42;;
42590;SDS011;28218;53.342;-6.216;2023-05-10T05:23:58;6.70;;;1.98;;
42590;SDS011;28218;53.342;-6.216;2023-05-10T05:26:27;8.25;;;1.13;;
42590;SDS011;28218;53.342;-6.216;2023-05-10T05:28:55;7.43;;;1.73;;
42590;SDS011;28218;53.342;-6.216;2023-05-10T05:31:23;4.65;;;1.00;;
42590;SDS011;28218;53.342;-6.216;2023-05-10T05:33:51;6.05;;;1.10;;
42590;SDS011;28218;53.342;-6.216;2023-05-10T05:36:20;10.13;;;1.98;;
42590;SDS011;28218;53.342;-6.216;2023-05-10T05:38:50;8.88;;;1.98;;
42590;SDS011;28218;53.342;-6.216;2023-05-10T05:41:18;5.43;;;1.45;;
42590;SDS011;28218;53.342;-6.216;2023-05-10T05:43:46;8.43;;;1.70;;
42590;SDS011;28218;53.342;-6.216;2023-05-10T05:46:14;4.95;;;1.00;;
42590;SDS011;28218;53.342;-6.216;2023-05-10T05:48:42;5.93;;;1.23;;
42590;SDS011;28218;53.342;-6.216;2023-05-10T05:51:11;4.93;;;0.80;;
42590;SDS011;28218;53.342;-6.216;2023-05-10T05:53:39;4.88;;;1.50;;
42590;SDS011;28218;53.342;-6.216;2023-05-10T05:56:09;4.25;;;1.10;;
42590;SDS011;28218;53.342;-6.216;2023-05-10T05:58:37;6.55;;;1.42;;
42590;SDS011;28218;53.342;-6.216;2023-05-10T06:01:05;3.45;;;0.90;;
42590;SDS011;28218;53.342;-6.216;2023-05-10T06:03:34;4.63;;;1.25;;
42590;SDS011;28218;53.342;-6.216;2023-05-10T06:06:02;6.25;;;1.30;;
42590;SDS011;28218;53.342;-6.216;2023-05-10T06:08:31;5.55;;;1.38;;
42590;SDS011;28218;53.342;-6.216;2023-05-10T06:11:00;3.85;;;0.77;;
42590;SDS011;28218;53.342;-6.216;2023-05-10T06:13:32;6.55;;;1.23;;
42590;SDS011;28218;53.342;-6.216;2023-05-10T06:16:01;2.80;;;0.98;;
42590;SDS011;28218;53.342;-6.216;2023-05-10T06:18:30;2.97;;;1.00;;
42590;SDS011;28218;53.342;-6.216;2023-05-10T06:20:58;3.97;;;1.20;;
42590;SDS011;28218;53.342;-6.216;2023-05-10T06:23:26;3.85;;;1.15;;
42590;SDS011;28218;53.342;-6.216;2023-05-10T06:25:55;3.88;;;1.02;;
42590;SDS011;28218;53.342;-6.216;2023-05-10T06:28:23;4.03;;;1.00;;
42590;SDS011;28218;53.342;-6.216;2023-05-10T06:30:53;7.18;;;1.13;;
42590;SDS011;28218;53.342;-6.216;2023-05-10T06:33:21;2.22;;;0.93;;
42590;SDS011;28218;53.342;-6.216;2023-05-10T06:35:49;8.48;;;1.35;;
42590;SDS011;28218;53.342;-6.216;2023-05-10T06:38:17;7.22;;;1.20;;
42590;SDS011;28218;53.342;-6.216;2023-05-10T06:40:45;5.22;;;1.48;;
42590;SDS011;28218;53.342;-6.216;2023-05-10T06:43:13;3.80;;;1.05;;
42590;SDS011;28218;53.342;-6.216;2023-05-10T06:45:42;6.32;;;1.88;;
42590;SDS011;28218;53.342;-6.216;2023-05-10T06:48:11;3.20;;;1.15;;
42590;SDS011;28218;53.342;-6.216;2023-05-10T06:50:39;5.28;;;1.20;;
42590;SDS011;28218;53.342;-6.216;2023-05-10T06:53:08;3.20;;;1.23;;
42590;SDS011;28218;53.342;-6.216;2023-05-10T06:55:36;6.40;;;1.00;;
42590;SDS011;28218;53.342;-6.216;2023-05-10T06:58:04;4.03;;;0.95;;
42590;SDS011;28218;53.342;-6.216;2023-05-10T07:00:32;5.45;;;0.93;;
42590;SDS011;28218;53.342;-6.216;2023-05-10T07:03:01;4.70;;;1.08;;
42590;SDS011;28218;53.342;-6.216;2023-05-10T07:05:31;6.10;;;1.23;;
42590;SDS011;28218;53.342;-6.216;2023-05-10T07:07:59;3.80;;;0.70;;
42590;SDS011;28218;53.342;-6.216;2023-05-10T07:10:28;8.10;;;1.10;;
42590;SDS011;28218;53.342;-6.216;2023-05-10T07:12:56;5.70;;;1.15;;
42590;SDS011;28218;53.342;-6.216;2023-05-10T07:15:25;3.78;;;0.85;;
42590;SDS011;28218;53.342;-6.216;2023-05-10T07:17:53;3.10;;;0.73;;
42590;SDS011;28218;53.342;-6.216;2023-05-10T07:20:22;4.63;;;0.95;;
42590;SDS011;28218;53.342;-6.216;2023-05-10T07:22:51;6.25;;;1.58;;
42590;SDS011;28218;53.342;-6.216;2023-05-10T07:25:19;4.13;;;1.17;;
42590;SDS011;28218;53.342;-6.216;2023-05-10T07:27:48;5.60;;;1.20;;
42590;SDS011;28218;53.342;-6.216;2023-05-10T07:30:17;5.10;;;0.60;;
42590;SDS011;28218;53.342;-6.216;2023-05-10T07:32:46;2.90;;;0.82;;
42590;SDS011;28218;53.342;-6.216;2023-05-10T07:35:14;3.53;;;1.10;;
42590;SDS011;28218;53.342;-6.216;2023-05-10T07:37:43;11.50;;;1.15;;
42590;SDS011;28218;53.342;-6.216;2023-05-10T07:40:12;5.15;;;1.02;;
42590;SDS011;28218;53.342;-6.216;2023-05-10T07:42:40;4.53;;;1.42;;
42590;SDS011;28218;53.342;-6.216;2023-05-10T07:45:09;5.53;;;0.95;;
42590;SDS011;28218;53.342;-6.216;2023-05-10T07:47:37;2.00;;;0.75;;
42590;SDS011;28218;53.342;-6.216;2023-05-10T07:50:06;1.20;;;0.75;;
42590;SDS011;28218;53.342;-6.216;2023-05-10T07:52:35;1.52;;;0.60;;
42590;SDS011;28218;53.342;-6.216;2023-05-10T07:55:04;4.07;;;1.05;;
42590;SDS011;28218;53.342;-6.216;2023-05-10T07:57:35;1.17;;;0.60;;
42590;SDS011;28218;53.342;-6.216;2023-05-10T08:00:03;2.58;;;0.80;;
42590;SDS011;28218;53.342;-6.216;2023-05-10T08:02:33;4.32;;;0.85;;
42590;SDS011;28218;53.342;-6.216;2023-05-10T08:05:02;1.63;;;0.73;;
42590;SDS011;28218;53.342;-6.216;2023-05-10T08:07:31;4.05;;;0.93;;
42590;SDS011;28218;53.342;-6.216;2023-05-10T08:10:00;1.73;;;0.60;;
42590;SDS011;28218;53.342;-6.216;2023-05-10T08:12:28;8.38;;;0.77;;
42590;SDS011;28218;53.342;-6.216;2023-05-10T08:14:58;5.43;;;0.73;;
42590;SDS011;28218;53.342;-6.216;2023-05-10T08:17:26;4.03;;;1.20;;
42590;SDS011;28218;53.342;-6.216;2023-05-10T08:19:54;3.85;;;0.65;;
42590;SDS011;28218;53.342;-6.216;2023-05-10T08:22:23;3.95;;;0.65;;
42590;SDS011;28218;53.342;-6.216;2023-05-10T08:24:51;1.73;;;0.57;;
42590;SDS011;28218;53.342;-6.216;2023-05-10T08:27:19;3.88;;;0.70;;
42590;SDS011;28218;53.342;-6.216;2023-05-10T08:29:47;2.03;;;0.60;;
42590;SDS011;28218;53.342;-6.216;2023-05-10T08:32:17;1.20;;;0.40;;
42590;SDS011;28218;53.342;-6.216;2023-05-10T08:34:46;2.53;;;0.70;;
42590;SDS011;28218;53.342;-6.216;2023-05-10T08:37:14;3.05;;;0.60;;
42590;SDS011;28218;53.342;-6.216;2023-05-10T08:39:43;2.58;;;0.57;;
42590;SDS011;28218;53.342;-6.216;2023-05-10T08:42:12;2.42;;;0.70;;
42590;SDS011;28218;53.342;-6.216;2023-05-10T08:44:44;4.38;;;0.70;;
42590;SDS011;28218;53.342;-6.216;2023-05-10T08:47:16;3.22;;;1.00;;
42590;SDS011;28218;53.342;-6.216;2023-05-10T08:49:47;2.70;;;0.93;;
42590;SDS011;28218;53.342;-6.216;2023-05-10T08:52:18;2.35;;;0.50;;
42590;SDS011;28218;53.342;-6.216;2023-05-10T08:54:47;0.80;;;0.50;;
42590;SDS011;28218;53.342;-6.216;2023-05-10T08:57:16;2.03;;;0.80;;
42590;SDS011;28218;53.342;-6.216;2023-05-10T08:59:44;2.60;;;0.80;;
42590;SDS011;28218;53.342;-6.216;2023-05-10T09:02:12;4.38;;;1.13;;
42590;SDS011;28218;53.342;-6.216;2023-05-10T09:07:15;1.00;;;0.45;;
42590;SDS011;28218;53.342;-6.216;2023-05-10T09:09:44;1.73;;;0.70;;
42590;SDS011;28218;53.342;-6.216;2023-05-10T09:12:13;2.03;;;0.40;;
42590;SDS011;28218;53.342;-6.216;2023-05-10T09:14:43;3.55;;;0.60;;
42590;SDS011;28218;53.342;-6.216;2023-05-10T09:17:13;3.85;;;0.77;;
42590;SDS011;28218;53.342;-6.216;2023-05-10T09:19:41;5.05;;;0.90;;
42590;SDS011;28218;53.342;-6.216;2023-05-10T09:22:11;3.67;;;0.70;;
42590;SDS011;28218;53.342;-6.216;2023-05-10T09:24:39;1.30;;;0.70;;
42590;SDS011;28218;53.342;-6.216;2023-05-10T09:27:11;2.35;;;0.70;;
42590;SDS011;28218;53.342;-6.216;2023-05-10T09:29:40;1.63;;;0.88;;
42590;SDS011;28218;53.342;-6.216;2023-05-10T09:32:08;1.67;;;0.63;;
42590;SDS011;28218;53.342;-6.216;2023-05-10T09:34:39;2.03;;;0.63;;
42590;SDS011;28218;53.342;-6.216;2023-05-10T09:37:08;0.77;;;0.50;;
42590;SDS011;28218;53.342;-6.216;2023-05-10T09:39:38;0.63;;;0.40;;
42590;SDS011;28218;53.342;-6.216;2023-05-10T09:42:08;0.85;;;0.63;;
42590;SDS011;28218;53.342;-6.216;2023-05-10T09:44:37;3.25;;;0.32;;
42590;SDS011;28218;53.342;-6.216;2023-05-10T09:47:07;1.30;;;0.30;;
42590;SDS011;28218;53.342;-6.216;2023-05-10T09:49:35;1.67;;;0.50;;
42590;SDS011;28218;53.342;-6.216;2023-05-10T09:52:04;1.75;;;0.50;;
42590;SDS011;28218;53.342;-6.216;2023-05-10T09:54:34;2.30;;;0.50;;
42590;SDS011;28218;53.342;-6.216;2023-05-10T09:57:04;5.05;;;0.73;;
42590;SDS011;28218;53.342;-6.216;2023-05-10T09:59:32;1.08;;;0.60;;
42590;SDS011;28218;53.342;-6.216;2023-05-10T10:02:01;0.90;;;0.50;;
42590;SDS011;28218;53.342;-6.216;2023-05-10T10:04:30;0.50;;;0.50;;
42590;SDS011;28218;53.342;-6.216;2023-05-10T10:06:59;3.00;;;0.70;;
42590;SDS011;28218;53.342;-6.216;2023-05-10T10:09:29;1.52;;;0.50;;
42590;SDS011;28218;53.342;-6.216;2023-05-10T10:11:58;0.35;;;0.35;;
42590;SDS011;28218;53.342;-6.216;2023-05-10T10:14:28;1.52;;;0.40;;
42590;SDS011;28218;53.342;-6.216;2023-05-10T10:16:57;0.68;;;0.40;;
42590;SDS011;28218;53.342;-6.216;2023-05-10T10:19:34;0.65;;;0.30;;
42590;SDS011;28218;53.342;-6.216;2023-05-10T10:22:03;2.95;;;0.35;;
42590;SDS011;28218;53.342;-6.216;2023-05-10T10:24:32;1.52;;;0.40;;
42590;SDS011;28218;53.342;-6.216;2023-05-10T10:27:04;0.90;;;0.40;;
42590;SDS011;28218;53.342;-6.216;2023-05-10T10:29:44;3.10;;;0.60;;
42590;SDS011;28218;53.342;-6.216;2023-05-10T10:32:22;1.30;;;0.60;;
42590;SDS011;28218;53.342;-6.216;2023-05-10T10:34:55;0.98;;;0.43;;
42590;SDS011;28218;53.342;-6.216;2023-05-10T10:37:24;1.15;;;0.60;;
42590;SDS011;28218;53.342;-6.216;2023-05-10T10:40:23;1.42;;;0.60;;
42590;SDS011;28218;53.342;-6.216;2023-05-10T10:42:53;1.08;;;0.55;;
42590;SDS011;28218;53.342;-6.216;2023-05-10T10:45:23;0.95;;;0.50;;
42590;SDS011;28218;53.342;-6.216;2023-05-10T10:50:55;4.82;;;0.60;;
42590;SDS011;28218;53.342;-6.216;2023-05-10T10:53:25;2.30;;;0.80;;
42590;SDS011;28218;53.342;-6.216;2023-05-10T10:58:33;1.15;;;0.52;;
42590;SDS011;28218;53.342;-6.216;2023-05-10T11:01:12;1.35;;;0.35;;
42590;SDS011;28218;53.342;-6.216;2023-05-10T11:03:54;1.33;;;0.50;;
42590;SDS011;28218;53.342;-6.216;2023-05-10T11:06:45;3.92;;;0.65;;
42590;SDS011;28218;53.342;-6.216;2023-05-10T11:09:13;1.67;;;0.57;;
42590;SDS011;28218;53.342;-6.216;2023-05-10T11:11:48;0.50;;;0.50;;
42590;SDS011;28218;53.342;-6.216;2023-05-10T11:14:19;1.02;;;0.40;;
42590;SDS011;28218;53.342;-6.216;2023-05-10T11:16:50;2.30;;;0.60;;
42590;SDS011;28218;53.342;-6.216;2023-05-10T11:19:19;1.42;;;0.50;;
42590;SDS011;28218;53.342;-6.216;2023-05-10T11:21:48;3.60;;;0.70;;
42590;SDS011;28218;53.342;-6.216;2023-05-10T11:24:18;2.38;;;1.20;;
42590;SDS011;28218;53.342;-6.216;2023-05-10T11:26:49;1.90;;;0.90;;
42590;SDS011;28218;53.342;-6.216;2023-05-10T11:29:18;2.15;;;0.65;;
42590;SDS011;28218;53.342;-6.216;2023-05-10T11:31:46;0.88;;;0.70;;
42590;SDS011;28218;53.342;-6.216;2023-05-10T11:34:26;0.52;;;0.40;;
42590;SDS011;28218;53.342;-6.216;2023-05-10T11:36:56;1.63;;;0.60;;
42590;SDS011;28218;53.342;-6.216;2023-05-10T11:39:25;1.90;;;0.85;;
42590;SDS011;28218;53.342;-6.216;2023-05-10T11:41:55;2.72;;;0.57;;
42590;SDS011;28218;53.342;-6.216;2023-05-10T11:44:24;3.65;;;0.80;;
42590;SDS011;28218;53.342;-6.216;2023-05-10T11:46:58;2.05;;;0.65;;
42590;SDS011;28218;53.342;-6.216;2023-05-10T11:49:28;1.42;;;0.63;;
42590;SDS011;28218;53.342;-6.216;2023-05-10T11:52:03;1.70;;;0.50;;
42590;SDS011;28218;53.342;-6.216;2023-05-10T11:54:32;3.75;;;0.52;;
42590;SDS011;28218;53.342;-6.216;2023-05-10T11:57:01;0.70;;;0.70;;
42590;SDS011;28218;53.342;-6.216;2023-05-10T11:59:30;0.40;;;0.40;;
42590;SDS011;28218;53.342;-6.216;2023-05-10T12:01:58;1.77;;;0.70;;
42590;SDS011;28218;53.342;-6.216;2023-05-10T12:04:28;4.10;;;0.82;;
42590;SDS011;28218;53.342;-6.216;2023-05-10T12:06:57;2.35;;;1.40;;
42590;SDS011;28218;53.342;-6.216;2023-05-10T12:09:25;1.60;;;1.48;;
42590;SDS011;28218;53.342;-6.216;2023-05-10T12:12:08;1.58;;;0.50;;
42590;SDS011;28218;53.342;-6.216;2023-05-10T12:14:36;2.53;;;0.60;;
42590;SDS011;28218;53.342;-6.216;2023-05-10T12:17:04;1.67;;;0.60;;
42590;SDS011;28218;53.342;-6.216;2023-05-10T12:22:10;0.52;;;0.40;;
42590;SDS011;28218;53.342;-6.216;2023-05-10T12:24:38;1.55;;;0.88;;
42590;SDS011;28218;53.342;-6.216;2023-05-10T12:27:07;4.97;;;0.60;;
42590;SDS011;28218;53.342;-6.216;2023-05-10T12:29:53;1.50;;;0.50;;
42590;SDS011;28218;53.342;-6.216;2023-05-10T12:32:22;3.20;;;1.27;;
42590;SDS011;28218;53.342;-6.216;2023-05-10T12:35:07;4.15;;;1.02;;
42590;SDS011;28218;53.342;-6.216;2023-05-10T12:37:36;3.87;;;0.83;;
42590;SDS011;28218;53.342;-6.216;2023-05-10T12:40:06;1.17;;;0.77;;
42590;SDS011;28218;53.342;-6.216;2023-05-10T12:42:35;1.75;;;0.70;;
42590;SDS011;28218;53.342;-6.216;2023-05-10T12:45:04;1.02;;;0.47;;
42590;SDS011;28218;53.342;-6.216;2023-05-10T12:47:33;1.17;;;0.70;;
42590;SDS011;28218;53.342;-6.216;2023-05-10T12:50:02;2.85;;;0.70;;
42590;SDS011;28218;53.342;-6.216;2023-05-10T12:52:32;1.08;;;0.85;;
42590;SDS011;28218;53.342;-6.216;2023-05-10T12:55:00;2.88;;;0.80;;
42590;SDS011;28218;53.342;-6.216;2023-05-10T12:57:29;1.80;;;0.60;;
42590;SDS011;28218;53.342;-6.216;2023-05-10T12:59:57;0.98;;;0.88;;
42590;SDS011;28218;53.342;-6.216;2023-05-10T13:02:26;2.25;;;0.55;;
42590;SDS011;28218;53.342;-6.216;2023-05-10T13:04:54;2.85;;;0.82;;
42590;SDS011;28218;53.342;-6.216;2023-05-10T13:07:22;5.60;;;0.60;;
42590;SDS011;28218;53.342;-6.216;2023-05-10T13:09:52;2.95;;;0.52;;
42590;SDS011;28218;53.342;-6.216;2023-05-10T13:12:20;1.85;;;0.50;;
42590;SDS011;28218;53.342;-6.216;2023-05-10T13:14:48;2.25;;;0.75;;
42590;SDS011;28218;53.342;-6.216;2023-05-10T13:17:16;1.05;;;0.60;;
42590;SDS011;28218;53.342;-6.216;2023-05-10T13:19:45;1.02;;;0.50;;
42590;SDS011;28218;53.342;-6.216;2023-05-10T13:22:13;1.98;;;0.82;;
42590;SDS011;28218;53.342;-6.216;2023-05-10T13:24:48;1.00;;;0.70;;
42590;SDS011;28218;53.342;-6.216;2023-05-10T13:27:17;2.67;;;1.00;;
42590;SDS011;28218;53.342;-6.216;2023-05-10T13:29:46;0.82;;;0.55;;
42590;SDS011;28218;53.342;-6.216;2023-05-10T13:32:14;1.80;;;0.60;;
42590;SDS011;28218;53.342;-6.216;2023-05-10T13:34:42;1.23;;;0.80;;
42590;SDS011;28218;53.342;-6.216;2023-05-10T13:37:11;2.05;;;0.65;;
42590;SDS011;28218;53.342;-6.216;2023-05-10T13:39:39;0.50;;;0.50;;
42590;SDS011;28218;53.342;-6.216;2023-05-10T13:42:07;0.80;;;0.80;;
42590;SDS011;28218;53.342;-6.216;2023-05-10T13:44:37;0.45;;;0.45;;
42590;SDS011;28218;53.342;-6.216;2023-05-10T13:47:05;1.52;;;0.50;;
42590;SDS011;28218;53.342;-6.216;2023-05-10T13:49:33;1.20;;;0.68;;
42590;SDS011;28218;53.342;-6.216;2023-05-10T13:52:01;0.90;;;0.90;;
42590;SDS011;28218;53.342;-6.216;2023-05-10T13:54:33;1.35;;;0.63;;
42590;SDS011;28218;53.342;-6.216;2023-05-10T13:57:02;1.20;;;0.73;;
42590;SDS011;28218;53.342;-6.216;2023-05-10T13:59:30;2.00;;;0.52;;
42590;SDS011;28218;53.342;-6.216;2023-05-10T14:02:00;1.58;;;1.48;;
42590;SDS011;28218;53.342;-6.216;2023-05-10T14:04:29;1.27;;;0.80;;
42590;SDS011;28218;53.342;-6.216;2023-05-10T14:06:58;0.50;;;0.50;;
42590;SDS011;28218;53.342;-6.216;2023-05-10T14:09:26;0.85;;;0.68;;
42590;SDS011;28218;53.342;-6.216;2023-05-10T14:11:54;1.85;;;0.80;;
42590;SDS011;28218;53.342;-6.216;2023-05-10T14:14:22;1.95;;;0.70;;
42590;SDS011;28218;53.342;-6.216;2023-05-10T14:16:51;1.25;;;0.55;;
42590;SDS011;28218;53.342;-6.216;2023-05-10T14:19:20;4.13;;;0.57;;
42590;SDS011;28218;53.342;-6.216;2023-05-10T14:21:49;1.05;;;0.30;;
42590;SDS011;28218;53.342;-6.216;2023-05-10T14:24:18;0.52;;;0.52;;
42590;SDS011;28218;53.342;-6.216;2023-05-10T14:26:46;1.00;;;0.50;;
42590;SDS011;28218;53.342;-6.216;2023-05-10T14:29:14;0.65;;;0.43;;
42590;SDS011;28218;53.342;-6.216;2023-05-10T14:31:42;2.95;;;0.80;;
42590;SDS011;28218;53.342;-6.216;2023-05-10T14:34:11;0.95;;;0.60;;
42590;SDS011;28218;53.342;-6.216;2023-05-10T14:36:40;1.45;;;0.73;;
42590;SDS011;28218;53.342;-6.216;2023-05-10T14:39:09;2.55;;;0.70;;
42590;SDS011;28218;53.342;-6.216;2023-05-10T14:41:39;0.63;;;0.57;;
42590;SDS011;28218;53.342;-6.216;2023-05-10T14:44:09;4.72;;;0.90;;
42590;SDS011;28218;53.342;-6.216;2023-05-10T14:46:37;0.90;;;0.50;;
42590;SDS011;28218;53.342;-6.216;2023-05-10T14:49:06;0.75;;;0.50;;
42590;SDS011;28218;53.342;-6.216;2023-05-10T14:51:34;2.67;;;0.70;;
42590;SDS011;28218;53.342;-6.216;2023-05-10T14:54:04;1.63;;;0.60;;
42590;SDS011;28218;53.342;-6.216;2023-05-10T14:56:33;0.73;;;0.60;;
42590;SDS011;28218;53.342;-6.216;2023-05-10T14:59:01;2.83;;;0.90;;
42590;SDS011;28218;53.342;-6.216;2023-05-10T15:01:30;3.33;;;0.60;;
42590;SDS011;28218;53.342;-6.216;2023-05-10T15:04:00;1.58;;;0.50;;
42590;SDS011;28218;53.342;-6.216;2023-05-10T15:06:30;1.13;;;0.47;;